createdAt,value
2022-08-08T00:00:50.735Z,16.51
2022-08-08T00:01:08.809Z,16.51
2022-08-08T00:02:03.541Z,16.51
2022-08-08T00:02:38.807Z,16.46
2022-08-08T00:03:38.813Z,16.42
2022-08-08T00:04:38.857Z,16.42
2022-08-08T00:05:44.053Z,16.37
2022-08-08T00:06:38.765Z,16.34
2022-08-08T00:07:38.727Z,16.34
2022-08-08T00:08:38.721Z,16.25
2022-08-08T00:09:38.746Z,16.24
2022-08-08T00:10:38.695Z,16.22
2022-08-08T00:11:46.770Z,16.22
2022-08-08T00:12:38.676Z,16.17
2022-08-08T00:14:16.657Z,16.17
2022-08-08T00:14:59.606Z,16.18
2022-08-08T00:15:56.511Z,16.16
2022-08-08T00:16:38.618Z,16.16
2022-08-08T00:18:02.558Z,16.16
2022-08-08T00:18:38.592Z,16.14
2022-08-08T00:19:38.565Z,16.10
2022-08-08T00:20:38.591Z,16.08
2022-08-08T00:21:39.605Z,16.03
2022-08-08T00:22:39.721Z,15.98
2022-08-08T00:23:42.315Z,15.85
2022-08-08T00:24:38.512Z,15.81
2022-08-08T00:25:44.815Z,15.78
2022-08-08T00:26:38.532Z,15.76
2022-08-08T00:27:38.449Z,15.69
2022-08-08T00:28:38.453Z,15.66
2022-08-08T00:29:46.410Z,15.62
2022-08-08T00:30:45.198Z,15.65
2022-08-08T00:32:20.752Z,15.63
2022-08-08T00:32:39.661Z,15.66
2022-08-08T00:34:17.995Z,15.66
2022-08-08T00:34:38.381Z,15.66
2022-08-08T00:35:38.353Z,15.62
2022-08-08T00:36:38.349Z,15.62
2022-08-08T00:37:48.015Z,15.63
2022-08-08T00:38:51.894Z,15.62
2022-08-08T00:41:11.326Z,15.62
2022-08-08T00:41:22.093Z,15.60
2022-08-08T00:42:08.364Z,15.60
2022-08-08T00:42:41.767Z,15.56
2022-08-08T00:43:40.775Z,15.52
2022-08-08T00:44:38.276Z,15.54
2022-08-08T00:45:38.215Z,15.48
2022-08-08T00:46:56.817Z,15.54
2022-08-08T00:48:01.992Z,15.59
2022-08-08T00:48:38.189Z,15.62
2022-08-08T00:49:38.165Z,15.63
2022-08-08T00:50:40.925Z,15.60
2022-08-08T00:51:42.248Z,15.62
2022-08-08T00:52:39.962Z,15.58
2022-08-08T00:53:43.549Z,15.58
2022-08-08T00:54:38.107Z,15.56
2022-08-08T00:55:52.789Z,15.60
2022-08-08T00:56:38.114Z,15.59
2022-08-08T00:57:38.058Z,15.58
2022-08-08T00:58:38.051Z,15.59
2022-08-08T00:59:43.719Z,15.56
2022-08-08T01:00:38.057Z,15.52
2022-08-08T01:01:39.151Z,15.45
2022-08-08T01:04:00.905Z,15.44
2022-08-08T01:04:09.155Z,15.43
2022-08-08T01:04:42.174Z,15.43
2022-08-08T01:05:58.292Z,15.51
2022-08-08T01:06:37.950Z,15.54
2022-08-08T01:07:55.380Z,15.58
2022-08-08T01:08:37.963Z,15.60
2022-08-08T01:09:41.396Z,15.58
2022-08-08T01:10:37.891Z,15.56
2022-08-08T01:11:37.867Z,15.54
2022-08-08T01:12:37.867Z,15.50
2022-08-08T01:13:43.393Z,15.50
2022-08-08T01:14:53.438Z,15.47
2022-08-08T01:15:44.056Z,15.44
2022-08-08T01:16:37.820Z,15.40
2022-08-08T01:17:52.022Z,15.38
2022-08-08T01:18:53.543Z,15.36
2022-08-08T01:19:52.179Z,15.30
2022-08-08T01:22:11.731Z,15.32
2022-08-08T01:22:48.950Z,15.30
2022-08-08T01:24:05.460Z,15.32
2022-08-08T01:24:53.898Z,15.32
2022-08-08T01:25:48.897Z,15.36
2022-08-08T01:26:49.300Z,15.30
2022-08-08T01:27:48.857Z,15.30
2022-08-08T01:28:48.864Z,15.26
2022-08-08T01:29:59.395Z,15.25
2022-08-08T01:30:48.844Z,15.25
2022-08-08T01:32:13.091Z,15.26
2022-08-08T01:32:51.964Z,15.23
2022-08-08T01:34:00.928Z,15.20
2022-08-08T01:34:49.644Z,15.22
2022-08-08T01:35:48.780Z,15.20
2022-08-08T01:36:48.769Z,15.22
2022-08-08T01:37:57.095Z,15.23
2022-08-08T01:38:48.772Z,15.22
2022-08-08T01:39:48.715Z,15.22
2022-08-08T01:40:48.706Z,15.22
2022-08-08T01:41:48.672Z,15.19
2022-08-08T01:42:48.672Z,15.19
2022-08-08T01:43:48.649Z,15.22
2022-08-08T01:44:50.596Z,15.25
2022-08-08T01:45:50.388Z,15.26
2022-08-08T01:46:52.163Z,15.23
2022-08-08T01:48:15.462Z,15.20
2022-08-08T01:48:48.601Z,15.17
2022-08-08T01:49:48.564Z,15.14
2022-08-08T01:50:50.406Z,15.15
2022-08-08T01:52:40.180Z,15.11
2022-08-08T01:55:16.259Z,15.08
2022-08-08T01:56:26.988Z,15.01
2022-08-08T01:56:37.244Z,15.04
2022-08-08T01:56:42.744Z,15.03
2022-08-08T01:58:04.364Z,14.99
2022-08-08T01:58:47.103Z,14.95
2022-08-08T02:00:01.925Z,14.92
2022-08-08T02:00:42.678Z,14.95
2022-08-08T02:02:00.034Z,14.95
2022-08-08T02:02:42.972Z,14.92
2022-08-08T02:03:56.181Z,14.93
2022-08-08T02:04:43.404Z,14.92
2022-08-08T02:05:56.949Z,14.92
2022-08-08T02:06:43.526Z,14.90
2022-08-08T02:07:48.837Z,14.93
2022-08-08T02:08:45.677Z,14.95
2022-08-08T02:10:03.444Z,14.95
2022-08-08T02:10:44.953Z,14.93
2022-08-08T02:11:52.781Z,14.93
2022-08-08T02:12:42.446Z,14.92
2022-08-08T02:13:52.831Z,14.92
2022-08-08T02:14:55.083Z,14.90
2022-08-08T02:15:42.414Z,14.87
2022-08-08T02:16:42.811Z,14.86
2022-08-08T02:17:42.803Z,14.82
2022-08-08T02:18:42.355Z,14.83
2022-08-08T02:20:07.598Z,14.83
2022-08-08T02:21:02.605Z,14.85
2022-08-08T02:21:42.337Z,14.83
2022-08-08T02:22:52.348Z,14.82
2022-08-08T02:23:42.313Z,14.83
2022-08-08T02:24:44.171Z,14.82
2022-08-08T02:25:46.856Z,14.78
2022-08-08T02:26:42.305Z,14.78
2022-08-08T02:27:43.777Z,14.78
2022-08-08T02:28:42.234Z,14.74
2022-08-08T02:29:51.873Z,14.77
2022-08-08T02:30:50.107Z,14.74
2022-08-08T02:31:58.053Z,14.70
2022-08-08T02:32:42.169Z,14.71
2022-08-08T02:34:07.906Z,14.69
2022-08-08T02:35:07.746Z,14.66
2022-08-08T02:36:03.811Z,14.69
2022-08-08T02:36:42.121Z,14.63
2022-08-08T02:37:51.832Z,14.63
2022-08-08T02:38:42.087Z,14.58
2022-08-08T02:39:59.530Z,14.55
2022-08-08T02:40:45.018Z,14.52
2022-08-08T02:41:59.030Z,14.52
2022-08-08T02:42:42.363Z,14.51
2022-08-08T02:44:36.848Z,14.51
2022-08-08T02:44:58.709Z,14.49
2022-08-08T02:45:54.390Z,14.48
2022-08-08T02:46:41.985Z,14.45
2022-08-08T02:47:41.985Z,14.40
2022-08-08T02:48:42.861Z,14.37
2022-08-08T02:49:47.955Z,14.34
2022-08-08T02:50:41.931Z,14.30
2022-08-08T02:51:56.334Z,14.26
2022-08-08T02:52:41.904Z,14.23
2022-08-08T02:53:41.898Z,14.22
2022-08-08T02:54:41.870Z,14.21
2022-08-08T02:55:41.908Z,14.18
2022-08-08T02:56:41.842Z,14.16
2022-08-08T02:57:44.971Z,14.16
2022-08-08T02:58:41.816Z,14.18
2022-08-08T02:59:57.687Z,14.16
2022-08-08T03:00:47.160Z,14.18
2022-08-08T03:01:47.486Z,14.16
2022-08-08T03:02:41.771Z,14.18
2022-08-08T03:05:01.512Z,14.16
2022-08-08T03:05:10.973Z,14.13
2022-08-08T03:05:44.820Z,14.13
2022-08-08T03:06:41.714Z,14.16
2022-08-08T03:07:58.109Z,14.13
2022-08-08T03:08:41.705Z,14.12
2022-08-08T03:09:41.669Z,14.12
2022-08-08T03:10:44.233Z,14.12
2022-08-08T03:12:02.153Z,14.13
2022-08-08T03:13:01.157Z,14.13
2022-08-08T03:15:57.761Z,14.12
2022-08-08T03:16:09.655Z,14.13
2022-08-08T03:16:34.463Z,14.13
2022-08-08T03:17:20.353Z,14.15
2022-08-08T03:18:16.740Z,14.12
2022-08-08T03:19:17.890Z,14.13
2022-08-08T03:20:16.707Z,14.13
2022-08-08T03:21:16.734Z,14.09
2022-08-08T03:22:38.148Z,14.09
2022-08-08T03:23:17.836Z,14.04
2022-08-08T03:24:16.652Z,14.00
2022-08-08T03:25:18.736Z,13.96
2022-08-08T03:26:16.628Z,13.93
2022-08-08T03:27:16.630Z,13.93
2022-08-08T03:28:19.067Z,13.90
2022-08-08T03:29:18.742Z,13.88
2022-08-08T03:30:19.203Z,13.88
2022-08-08T03:31:24.848Z,13.91
2022-08-08T03:32:16.563Z,13.91
2022-08-08T03:33:56.836Z,13.90
2022-08-08T03:34:16.472Z,13.91
2022-08-08T03:35:16.477Z,13.93
2022-08-08T03:36:20.081Z,13.91
2022-08-08T03:37:19.951Z,13.90
2022-08-08T03:38:57.603Z,13.90
2022-08-08T03:39:16.447Z,13.88
2022-08-08T03:40:28.914Z,13.91
2022-08-08T03:42:12.520Z,13.88
2022-08-08T03:42:33.478Z,13.91
2022-08-08T03:43:19.974Z,13.90
2022-08-08T03:44:16.334Z,13.94
2022-08-08T03:46:05.602Z,13.96
2022-08-08T03:46:16.314Z,13.97
2022-08-08T03:47:20.349Z,13.97
2022-08-08T03:48:21.327Z,13.96
2022-08-08T03:49:54.869Z,13.93
2022-08-08T03:50:19.998Z,13.93
2022-08-08T03:51:16.262Z,13.93
2022-08-08T03:52:16.229Z,13.94
2022-08-08T03:53:16.227Z,13.96
2022-08-08T03:54:52.156Z,13.96
2022-08-08T03:55:20.228Z,13.96
2022-08-08T03:56:31.229Z,13.96
2022-08-08T03:58:29.853Z,13.98
2022-08-08T03:58:38.557Z,14.00
2022-08-08T03:59:22.797Z,14.00
2022-08-08T04:00:18.175Z,14.03
2022-08-08T04:01:23.649Z,14.03
2022-08-08T04:02:32.810Z,14.03
2022-08-08T04:03:16.161Z,14.00
2022-08-08T04:04:16.097Z,13.98
2022-08-08T04:05:19.538Z,14.00
2022-08-08T04:06:16.081Z,13.98
2022-08-08T04:07:16.459Z,13.94
2022-08-08T04:08:32.436Z,13.94
2022-08-08T04:09:16.015Z,13.94
2022-08-08T04:10:16.000Z,13.93
2022-08-08T04:11:17.590Z,13.91
2022-08-08T04:12:16.187Z,13.91
2022-08-08T04:13:17.905Z,13.91
2022-08-08T04:14:34.894Z,13.93
2022-08-08T04:15:15.940Z,13.91
2022-08-08T04:16:15.925Z,13.91
2022-08-08T04:17:22.465Z,13.96
2022-08-08T04:18:17.231Z,13.97
2022-08-08T04:19:25.179Z,13.98
2022-08-08T04:20:15.864Z,13.96
2022-08-08T04:21:20.084Z,13.94
2022-08-08T04:22:16.685Z,13.94
2022-08-08T04:23:15.833Z,13.93
2022-08-08T04:24:28.993Z,13.94
2022-08-08T04:25:15.804Z,13.91
2022-08-08T04:26:15.773Z,13.91
2022-08-08T04:27:42.988Z,13.90
2022-08-08T04:28:36.384Z,13.91
2022-08-08T04:29:16.393Z,13.91
2022-08-08T04:30:17.140Z,13.88
2022-08-08T04:31:30.617Z,13.91
2022-08-08T04:32:30.246Z,13.93
2022-08-08T04:33:16.011Z,13.94
2022-08-08T04:34:15.676Z,13.96
2022-08-08T04:35:15.673Z,13.98
2022-08-08T04:36:15.679Z,13.97
2022-08-08T04:37:15.637Z,14.01
2022-08-08T04:38:21.228Z,14.01
2022-08-08T04:40:03.959Z,14.04
2022-08-08T04:40:15.689Z,14.04
2022-08-08T04:41:18.017Z,14.04
2022-08-08T04:42:15.859Z,14.01
2022-08-08T04:43:15.561Z,14.01
2022-08-08T04:44:15.533Z,14.01
2022-08-08T04:45:15.535Z,14.00
2022-08-08T04:46:15.504Z,14.04
2022-08-08T04:47:16.637Z,14.04
2022-08-08T04:48:15.518Z,14.05
2022-08-08T04:49:15.483Z,14.08
2022-08-08T04:50:24.142Z,14.11
2022-08-08T04:51:17.396Z,14.15
2022-08-08T04:52:15.436Z,14.19
2022-08-08T04:54:26.783Z,14.21
2022-08-08T04:54:45.081Z,14.26
2022-08-08T04:55:15.406Z,14.30
2022-08-08T04:56:15.365Z,14.31
2022-08-08T04:57:15.374Z,14.36
2022-08-08T04:58:17.515Z,14.44
2022-08-08T04:59:15.590Z,14.52
2022-08-08T05:00:19.581Z,14.59
2022-08-08T05:01:15.354Z,14.67
2022-08-08T05:02:15.358Z,14.73
2022-08-08T05:03:18.716Z,14.85
2022-08-08T05:04:15.276Z,14.99
2022-08-08T05:05:20.356Z,15.15
2022-08-08T05:06:25.723Z,15.30
2022-08-08T05:07:15.283Z,15.50
2022-08-08T05:08:15.208Z,15.77
2022-08-08T05:09:15.854Z,16.05
2022-08-08T05:10:15.179Z,16.43
2022-08-08T05:11:23.720Z,16.90
2022-08-08T05:12:20.461Z,17.28
2022-08-08T05:13:17.849Z,17.49
2022-08-08T05:14:15.149Z,17.56
2022-08-08T05:15:15.125Z,17.63
2022-08-08T05:16:52.129Z,17.79
2022-08-08T05:17:15.318Z,17.99
2022-08-08T05:18:15.282Z,18.28
2022-08-08T05:20:12.959Z,18.36
2022-08-08T05:20:19.437Z,18.46
2022-08-08T05:21:15.066Z,18.75
2022-08-08T05:22:17.637Z,18.94
2022-08-08T05:23:15.021Z,19.08
2022-08-08T05:24:15.033Z,19.37
2022-08-08T05:25:15.001Z,19.53
2022-08-08T05:26:14.980Z,19.54
2022-08-08T05:27:14.985Z,19.49
2022-08-08T05:28:15.126Z,19.37
2022-08-08T05:29:14.947Z,19.39
2022-08-08T05:30:14.981Z,19.54
2022-08-08T05:32:02.365Z,19.81
2022-08-08T05:32:14.902Z,19.75
2022-08-08T05:33:14.894Z,19.72
2022-08-08T05:34:14.865Z,19.71
2022-08-08T05:35:14.872Z,19.63
2022-08-08T05:36:25.022Z,19.60
2022-08-08T05:37:16.042Z,19.50
2022-08-08T05:38:31.571Z,19.63
2022-08-08T05:39:14.856Z,19.82
2022-08-08T05:40:16.555Z,19.99
2022-08-08T05:41:14.805Z,20.19
2022-08-08T05:42:14.813Z,20.08
2022-08-08T05:43:40.062Z,20.02
2022-08-08T05:44:14.738Z,19.77
2022-08-08T05:45:25.743Z,19.86
2022-08-08T05:46:14.707Z,20.08
2022-08-08T05:47:14.699Z,20.27
2022-08-08T05:48:14.880Z,20.18
2022-08-08T05:49:14.676Z,19.96
2022-08-08T05:50:14.651Z,20.07
2022-08-08T05:51:16.240Z,20.15
2022-08-08T05:52:14.680Z,20.27
2022-08-08T05:53:53.816Z,20.44
2022-08-08T05:54:50.075Z,20.30
2022-08-08T05:55:14.629Z,20.30
2022-08-08T05:56:15.475Z,20.27
2022-08-08T05:57:15.185Z,20.17
2022-08-08T05:58:17.909Z,20.25
2022-08-08T05:59:14.560Z,20.29
2022-08-08T06:00:19.838Z,20.41
2022-08-08T06:01:14.525Z,20.52
2022-08-08T06:02:14.499Z,20.58
2022-08-08T06:03:24.617Z,20.48
2022-08-08T06:04:22.847Z,20.44
2022-08-08T06:05:33.335Z,20.42
2022-08-08T06:06:18.139Z,20.37
2022-08-08T06:07:14.449Z,20.42
2022-08-08T06:08:33.416Z,20.50
2022-08-08T06:09:58.256Z,20.52
2022-08-08T06:10:24.770Z,20.50
2022-08-08T06:11:16.569Z,20.56
2022-08-08T06:12:18.631Z,20.44
2022-08-08T06:13:14.365Z,20.19
2022-08-08T06:14:17.874Z,20.30
2022-08-08T06:15:16.291Z,20.30
2022-08-08T06:16:14.311Z,20.29
2022-08-08T06:17:19.186Z,20.52
2022-08-08T06:18:18.541Z,20.48
2022-08-08T06:19:16.482Z,20.41
2022-08-08T06:20:16.348Z,20.46
2022-08-08T06:21:27.951Z,20.60
2022-08-08T06:23:14.386Z,20.70
2022-08-08T06:24:23.329Z,20.58
2022-08-08T06:25:14.211Z,20.74
2022-08-08T06:26:43.712Z,20.80
2022-08-08T06:27:14.184Z,20.74
2022-08-08T06:28:14.145Z,20.63
2022-08-08T06:29:49.050Z,20.65
2022-08-08T06:30:26.121Z,20.64
2022-08-08T06:31:15.680Z,20.48
2022-08-08T06:32:15.192Z,20.42
2022-08-08T06:33:15.201Z,20.48
2022-08-08T06:34:27.607Z,20.48
2022-08-08T06:36:03.998Z,20.50
2022-08-08T06:36:14.077Z,20.63
2022-08-08T06:37:25.160Z,20.60
2022-08-08T06:38:15.099Z,20.79
2022-08-08T06:39:14.110Z,20.79
2022-08-08T06:40:16.051Z,20.79
2022-08-08T06:41:15.389Z,20.82
2022-08-08T06:42:13.986Z,20.71
2022-08-08T06:43:13.960Z,20.80
2022-08-08T06:44:22.938Z,20.85
2022-08-08T06:45:13.958Z,21.05
2022-08-08T06:46:13.899Z,20.97
2022-08-08T06:47:13.906Z,21.01
2022-08-08T06:48:13.923Z,20.98
2022-08-08T06:49:14.343Z,21.14
2022-08-08T06:50:17.526Z,21.22
2022-08-08T06:51:13.866Z,21.28
2022-08-08T06:52:16.111Z,21.28
2022-08-08T06:53:20.230Z,21.44
2022-08-08T06:54:13.890Z,21.44
2022-08-08T06:55:13.823Z,21.38
2022-08-08T06:56:16.508Z,21.44
2022-08-08T06:57:15.127Z,21.44
2022-08-08T06:58:13.742Z,21.51
2022-08-08T06:59:13.749Z,21.60
2022-08-08T07:00:13.760Z,21.62
2022-08-08T07:02:16.920Z,21.56
2022-08-08T07:02:33.030Z,21.41
2022-08-08T07:03:30.690Z,21.37
2022-08-08T07:04:45.456Z,21.37
2022-08-08T07:05:20.595Z,21.44
2022-08-08T07:06:13.698Z,21.71
2022-08-08T07:07:13.653Z,21.97
2022-08-08T07:08:16.424Z,22.12
2022-08-08T07:09:15.285Z,22.15
2022-08-08T07:10:13.599Z,22.28
2022-08-08T07:11:21.930Z,22.28
2022-08-08T07:12:13.595Z,22.38
2022-08-08T07:13:13.587Z,22.22
2022-08-08T07:14:13.706Z,22.11
2022-08-08T07:15:23.466Z,21.97
2022-08-08T07:16:13.512Z,22.11
2022-08-08T07:17:14.557Z,22.11
2022-08-08T07:18:36.161Z,22.31
2022-08-08T07:19:13.490Z,22.37
2022-08-08T07:20:13.469Z,22.40
2022-08-08T07:21:19.069Z,22.43
2022-08-08T07:22:19.179Z,22.53
2022-08-08T07:23:13.452Z,22.66
2022-08-08T07:24:13.513Z,22.71
2022-08-08T07:25:14.431Z,22.74
2022-08-08T07:26:13.387Z,22.61
2022-08-08T07:27:16.704Z,22.78
2022-08-08T07:28:18.685Z,22.92
2022-08-08T07:29:20.259Z,23.03
2022-08-08T07:30:21.184Z,23.14
2022-08-08T07:31:13.323Z,23.28
2022-08-08T07:32:15.700Z,23.34
2022-08-08T07:33:17.564Z,23.36
2022-08-08T07:34:20.236Z,23.44
2022-08-08T07:35:14.118Z,23.60
2022-08-08T07:36:13.293Z,23.63
2022-08-08T07:37:13.357Z,23.66
2022-08-08T07:38:18.518Z,23.64
2022-08-08T07:39:13.509Z,23.74
2022-08-08T07:40:20.896Z,23.67
2022-08-08T07:41:23.774Z,23.69
2022-08-08T07:42:13.229Z,23.55
2022-08-08T07:43:13.154Z,23.73
2022-08-08T07:44:33.469Z,23.84
2022-08-08T07:45:13.134Z,23.91
2022-08-08T07:46:23.371Z,23.85
2022-08-08T07:47:13.130Z,23.79
2022-08-08T07:48:13.140Z,23.96
2022-08-08T07:49:13.072Z,24.00
2022-08-08T07:50:13.073Z,24.04
2022-08-08T07:51:24.404Z,24.04
2022-08-08T07:52:22.478Z,24.10
2022-08-08T07:53:13.027Z,24.18
2022-08-08T07:54:15.810Z,24.29
2022-08-08T07:55:13.008Z,24.33
2022-08-08T07:56:12.998Z,24.34
2022-08-08T07:57:16.917Z,24.47
2022-08-08T07:58:12.980Z,24.52
2022-08-08T07:59:14.259Z,24.52
2022-08-08T08:00:13.340Z,24.70
2022-08-08T08:01:12.935Z,24.70
2022-08-08T08:02:35.627Z,24.60
2022-08-08T08:03:16.848Z,24.59
2022-08-08T08:04:13.547Z,24.75
2022-08-08T08:05:14.486Z,24.84
2022-08-08T08:06:14.231Z,24.91
2022-08-08T08:07:12.830Z,24.97
2022-08-08T08:08:12.879Z,25.00
2022-08-08T08:09:12.821Z,25.01
2022-08-08T08:10:13.002Z,25.08
2022-08-08T08:11:16.116Z,25.11
2022-08-08T08:12:14.401Z,24.96
2022-08-08T08:13:17.854Z,25.01
2022-08-08T08:14:15.185Z,25.16
2022-08-08T08:15:15.166Z,25.11
2022-08-08T08:16:12.739Z,25.18
2022-08-08T08:17:12.698Z,25.37
2022-08-08T08:18:14.301Z,25.52
2022-08-08T08:19:14.806Z,25.70
2022-08-08T08:20:12.687Z,25.68
2022-08-08T08:21:13.298Z,25.83
2022-08-08T08:22:12.678Z,26.05
2022-08-08T08:23:12.621Z,26.05
2022-08-08T08:24:12.713Z,26.00
2022-08-08T08:25:12.596Z,25.89
2022-08-08T08:26:12.590Z,26.05
2022-08-08T08:27:12.569Z,26.12
2022-08-08T08:28:16.985Z,26.20
2022-08-08T08:29:16.465Z,26.30
2022-08-08T08:30:12.590Z,26.34
2022-08-08T08:31:12.515Z,26.16
2022-08-08T08:32:12.520Z,26.20
2022-08-08T08:33:12.497Z,26.27
2022-08-08T08:34:12.490Z,26.28
2022-08-08T08:35:15.055Z,26.26
2022-08-08T08:36:18.413Z,26.15
2022-08-08T08:37:12.445Z,26.19
2022-08-08T08:38:17.662Z,26.31
2022-08-08T08:39:17.395Z,26.48
2022-08-08T08:40:13.169Z,26.41
2022-08-08T08:41:17.191Z,26.49
2022-08-08T08:42:13.229Z,26.48
2022-08-08T08:43:15.395Z,26.48
2022-08-08T08:44:15.623Z,26.49
2022-08-08T08:45:23.530Z,26.30
2022-08-08T08:46:12.344Z,26.51
2022-08-08T08:47:12.321Z,26.56
2022-08-08T08:48:16.427Z,26.71
2022-08-08T08:49:12.289Z,26.82
2022-08-08T08:50:31.603Z,26.76
2022-08-08T08:51:12.265Z,26.89
2022-08-08T08:52:12.267Z,27.00
2022-08-08T08:53:55.195Z,26.97
2022-08-08T08:54:12.265Z,26.98
2022-08-08T08:55:12.348Z,27.01
2022-08-08T08:56:12.215Z,27.01
2022-08-08T08:57:15.642Z,27.04
2022-08-08T08:58:12.213Z,27.04
2022-08-08T08:59:15.040Z,26.95
2022-08-08T09:00:17.014Z,27.05
2022-08-08T09:01:13.474Z,27.10
2022-08-08T09:02:12.195Z,26.98
2022-08-08T09:03:12.109Z,26.97
2022-08-08T09:04:30.338Z,26.71
2022-08-08T09:05:13.925Z,26.65
2022-08-08T09:06:26.384Z,26.71
2022-08-08T09:07:13.579Z,26.86
2022-08-08T09:08:18.345Z,26.83
2022-08-08T09:09:26.092Z,26.97
2022-08-08T09:10:17.436Z,27.00
2022-08-08T09:11:12.008Z,27.01
2022-08-08T09:12:12.064Z,27.13
2022-08-08T09:13:11.978Z,27.17
2022-08-08T09:14:11.970Z,27.25
2022-08-08T09:15:11.958Z,27.10
2022-08-08T09:16:11.957Z,27.12
2022-08-08T09:17:18.002Z,27.17
2022-08-08T09:18:13.105Z,27.25
2022-08-08T09:19:11.897Z,27.31
2022-08-08T09:21:57.302Z,27.40
2022-08-08T09:22:09.695Z,27.34
2022-08-08T09:22:19.611Z,27.38
2022-08-08T09:23:17.796Z,27.45
2022-08-08T09:24:15.358Z,27.69
2022-08-08T09:25:15.373Z,27.73
2022-08-08T09:26:15.249Z,27.60
2022-08-08T09:27:20.864Z,27.63
2022-08-08T09:28:31.574Z,27.82
2022-08-08T09:29:22.426Z,27.88
2022-08-08T09:30:17.795Z,27.88
2022-08-08T09:31:15.193Z,27.66
2022-08-08T09:32:15.176Z,27.44
2022-08-08T09:34:15.275Z,27.44
2022-08-08T09:34:37.711Z,27.41
2022-08-08T09:35:16.032Z,27.49
2022-08-08T09:36:15.149Z,27.44
2022-08-08T09:37:39.485Z,27.20
2022-08-08T09:38:17.686Z,27.15
2022-08-08T09:39:19.148Z,27.16
2022-08-08T09:40:15.180Z,27.37
2022-08-08T09:41:15.058Z,27.34
2022-08-08T09:42:22.102Z,27.32
2022-08-08T09:43:16.364Z,27.25
2022-08-08T09:44:18.995Z,27.37
2022-08-08T09:45:20.571Z,27.44
2022-08-08T09:46:16.762Z,27.73
2022-08-08T09:47:27.653Z,27.93
2022-08-08T09:48:20.920Z,27.97
2022-08-08T09:49:41.550Z,27.90
2022-08-08T09:50:14.987Z,27.80
2022-08-08T09:51:14.919Z,27.79
2022-08-08T09:52:20.545Z,27.90
2022-08-08T09:53:31.702Z,27.83
2022-08-08T09:54:19.662Z,27.80
2022-08-08T09:55:17.132Z,27.78
2022-08-08T09:56:24.909Z,27.72
2022-08-08T09:57:16.846Z,27.54
2022-08-08T09:58:19.861Z,27.52
2022-08-08T09:59:53.261Z,27.45
2022-08-08T10:00:50.072Z,27.66
2022-08-08T10:01:59.753Z,27.78
2022-08-08T10:02:14.908Z,27.76
2022-08-08T10:03:14.764Z,27.69
2022-08-08T10:04:14.811Z,27.63
2022-08-08T10:05:15.653Z,27.57
2022-08-08T10:06:14.742Z,27.70
2022-08-08T10:07:15.807Z,27.79
2022-08-08T10:08:14.722Z,27.72
2022-08-08T10:09:14.688Z,27.88
2022-08-08T10:10:14.750Z,28.09
2022-08-08T10:12:25.893Z,28.30
2022-08-08T10:12:38.803Z,28.50
2022-08-08T10:13:15.105Z,28.49
2022-08-08T10:14:28.263Z,28.35
2022-08-08T10:15:17.499Z,28.49
2022-08-08T10:16:14.669Z,28.59
2022-08-08T10:17:56.558Z,28.68
2022-08-08T10:18:22.320Z,28.64
2022-08-08T10:19:14.575Z,28.77
2022-08-08T10:20:17.054Z,28.77
2022-08-08T10:21:25.327Z,28.56
2022-08-08T10:22:14.579Z,28.38
2022-08-08T10:23:14.537Z,28.43
2022-08-08T10:24:29.304Z,28.61
2022-08-08T10:25:15.647Z,28.56
2022-08-08T10:26:25.899Z,28.65
2022-08-08T10:27:14.476Z,28.77
2022-08-08T10:28:15.113Z,28.81
2022-08-08T10:29:21.150Z,28.89
2022-08-08T10:30:16.265Z,29.06
2022-08-08T10:31:14.416Z,29.10
2022-08-08T10:32:14.416Z,28.94
2022-08-08T10:33:14.398Z,28.77
2022-08-08T10:34:18.821Z,28.80
2022-08-08T10:35:20.591Z,28.96
2022-08-08T10:36:20.991Z,29.07
2022-08-08T10:37:14.368Z,29.17
2022-08-08T10:38:14.342Z,29.24
2022-08-08T10:39:14.344Z,29.31
2022-08-08T10:40:16.067Z,29.18
2022-08-08T10:41:14.275Z,29.06
2022-08-08T10:42:16.744Z,28.98
2022-08-08T10:43:14.576Z,28.89
2022-08-08T10:44:14.257Z,28.96
2022-08-08T10:45:15.962Z,29.07
2022-08-08T10:46:29.672Z,29.07
2022-08-08T10:47:14.204Z,28.90
2022-08-08T10:48:14.224Z,28.94
2022-08-08T10:50:00.432Z,29.04
2022-08-08T10:50:15.593Z,29.00
2022-08-08T10:51:14.180Z,28.96
2022-08-08T10:52:14.218Z,28.75
2022-08-08T10:53:14.133Z,29.07
2022-08-08T10:54:14.170Z,29.07
2022-08-08T10:55:14.097Z,29.03
2022-08-08T10:56:26.891Z,28.96
2022-08-08T10:57:14.096Z,29.00
2022-08-08T10:58:15.575Z,29.09
2022-08-08T10:59:14.975Z,29.27
2022-08-08T11:00:14.047Z,29.52
2022-08-08T11:01:14.077Z,29.46
2022-08-08T11:02:14.077Z,29.43
2022-08-08T11:03:15.539Z,29.46
2022-08-08T11:04:14.063Z,29.50
2022-08-08T11:05:15.070Z,29.80
2022-08-08T11:06:14.211Z,29.86
2022-08-08T11:08:31.677Z,29.99
2022-08-08T11:08:53.181Z,30.11
2022-08-08T11:09:20.078Z,30.07
2022-08-08T11:10:13.966Z,30.00
2022-08-08T11:11:32.210Z,30.02
2022-08-08T11:12:14.227Z,29.58
2022-08-08T11:13:29.614Z,29.44
2022-08-08T11:14:15.835Z,29.43
2022-08-08T11:15:13.852Z,29.03
2022-08-08T11:16:32.510Z,29.04
2022-08-08T11:17:15.073Z,29.22
2022-08-08T11:18:13.822Z,29.52
2022-08-08T11:19:15.624Z,29.74
2022-08-08T11:20:13.910Z,29.78
2022-08-08T11:21:19.486Z,29.92
2022-08-08T11:22:13.816Z,29.83
2022-08-08T11:23:13.731Z,29.81
2022-08-08T11:24:13.743Z,29.80
2022-08-08T11:25:16.247Z,29.76
2022-08-08T11:26:19.427Z,29.31
2022-08-08T11:27:19.675Z,29.03
2022-08-08T11:28:13.783Z,29.06
2022-08-08T11:29:13.666Z,28.79
2022-08-08T11:30:23.978Z,28.91
2022-08-08T11:31:13.639Z,29.04
2022-08-08T11:32:13.636Z,29.36
2022-08-08T11:33:13.617Z,29.68
2022-08-08T11:34:24.484Z,29.62
2022-08-08T11:35:28.021Z,29.92
2022-08-08T11:36:13.634Z,30.05
2022-08-08T11:37:15.336Z,30.13
2022-08-08T11:38:39.703Z,30.10
2022-08-08T11:39:13.654Z,30.15
2022-08-08T11:40:13.634Z,30.07
2022-08-08T11:41:13.516Z,30.03
2022-08-08T11:42:13.489Z,29.95
2022-08-08T11:43:13.489Z,29.59
2022-08-08T11:44:13.467Z,29.78
2022-08-08T11:45:13.468Z,29.77
2022-08-08T11:46:18.342Z,29.73
2022-08-08T11:47:17.288Z,29.91
2022-08-08T11:48:13.421Z,29.89
2022-08-08T11:49:14.124Z,29.93
2022-08-08T11:50:13.399Z,29.96
2022-08-08T11:51:30.350Z,29.80
2022-08-08T11:52:18.496Z,29.73
2022-08-08T11:53:13.888Z,29.78
2022-08-08T11:54:31.237Z,30.05
2022-08-08T11:55:13.352Z,30.05
2022-08-08T11:56:13.341Z,29.99
2022-08-08T11:57:13.986Z,30.18
2022-08-08T11:58:14.368Z,30.26
2022-08-08T11:59:13.287Z,30.22
2022-08-08T12:00:13.262Z,30.20
2022-08-08T12:01:17.019Z,30.14
2022-08-08T12:02:30.881Z,29.99
2022-08-08T12:03:13.282Z,30.03
2022-08-08T12:04:13.272Z,29.76
2022-08-08T12:05:13.837Z,29.73
2022-08-08T12:06:13.191Z,29.71
2022-08-08T12:07:17.243Z,29.93
2022-08-08T12:08:13.157Z,29.73
2022-08-08T12:09:17.010Z,29.73
2022-08-08T12:10:13.393Z,30.10
2022-08-08T12:11:13.147Z,30.43
2022-08-08T12:12:13.110Z,30.29
2022-08-08T12:13:14.324Z,30.08
2022-08-08T12:14:13.083Z,29.91
2022-08-08T12:15:13.102Z,29.55
2022-08-08T12:16:13.281Z,29.36
2022-08-08T12:17:13.057Z,29.46
2022-08-08T12:18:13.033Z,29.61
2022-08-08T12:19:13.026Z,29.71
2022-08-08T12:20:14.603Z,29.74
2022-08-08T12:21:13.016Z,29.74
2022-08-08T12:22:20.861Z,29.77
2022-08-08T12:23:14.042Z,29.83
2022-08-08T12:24:12.952Z,30.18
2022-08-08T12:25:12.953Z,30.26
2022-08-08T12:26:17.322Z,30.52
2022-08-08T12:27:12.929Z,30.73
2022-08-08T12:28:15.796Z,30.64
2022-08-08T12:29:12.937Z,30.62
2022-08-08T12:30:15.851Z,30.24
2022-08-08T12:31:12.904Z,29.55
2022-08-08T12:32:13.384Z,29.22
2022-08-08T12:33:12.844Z,29.04
2022-08-08T12:34:12.868Z,28.93
2022-08-08T12:35:17.526Z,28.77
2022-08-08T12:36:12.801Z,29.02
2022-08-08T12:37:12.805Z,29.04
2022-08-08T12:38:17.839Z,29.52
2022-08-08T12:39:12.871Z,29.65
2022-08-08T12:40:12.853Z,29.96
2022-08-08T12:41:18.337Z,30.28
2022-08-08T12:42:20.664Z,30.40
2022-08-08T12:43:12.727Z,30.49
2022-08-08T12:44:12.700Z,30.49
2022-08-08T12:45:53.650Z,30.51
2022-08-08T12:46:12.707Z,30.71
2022-08-08T12:47:13.093Z,31.04
2022-08-08T12:48:36.707Z,31.26
2022-08-08T12:49:25.299Z,31.48
2022-08-08T12:50:12.624Z,31.23
2022-08-08T12:51:12.619Z,30.92
2022-08-08T12:52:27.956Z,30.68
2022-08-08T12:53:12.604Z,30.58
2022-08-08T12:54:24.387Z,30.60
2022-08-08T12:55:13.642Z,30.82